createdAt,value
2023-05-21T00:01:16.605Z,13.23
2023-05-21T00:03:47.037Z,13.07
2023-05-21T00:06:16.359Z,13.07
2023-05-21T00:08:46.911Z,13.17
2023-05-21T00:11:16.099Z,13.17
2023-05-21T00:13:45.209Z,13.11
2023-05-21T00:16:14.443Z,12.99
2023-05-21T00:18:47.561Z,13.03
2023-05-21T00:21:17.325Z,12.88
2023-05-21T00:23:48.272Z,12.90
2023-05-21T00:26:17.483Z,12.96
2023-05-21T00:28:47.536Z,12.77
2023-05-21T00:31:17.346Z,12.83
2023-05-21T00:33:46.597Z,12.78
2023-05-21T00:36:16.648Z,12.59
2023-05-21T00:38:47.642Z,12.62
2023-05-21T00:41:17.002Z,12.67
2023-05-21T00:43:46.763Z,12.53
2023-05-21T00:46:19.613Z,12.50
2023-05-21T00:48:50.622Z,12.56
2023-05-21T00:51:21.980Z,12.45
2023-05-21T00:53:53.762Z,12.36
2023-05-21T00:56:24.123Z,12.37
2023-05-21T00:58:54.036Z,12.39
2023-05-21T01:01:25.960Z,12.33
2023-05-21T01:03:57.895Z,12.35
2023-05-21T01:06:27.513Z,12.36
2023-05-21T01:08:58.289Z,12.21
2023-05-21T01:11:39.304Z,12.24
2023-05-21T01:14:10.105Z,12.23
2023-05-21T01:16:41.182Z,12.21
2023-05-21T01:19:14.661Z,12.21
2023-05-21T01:21:47.850Z,12.07
2023-05-21T01:24:18.592Z,11.90
2023-05-21T01:26:47.780Z,12.01
2023-05-21T01:29:16.939Z,12.07
2023-05-21T01:32:00.797Z,11.85
2023-05-21T01:34:36.219Z,11.93
2023-05-21T01:37:15.989Z,11.93
2023-05-21T01:39:57.161Z,11.83
2023-05-21T01:42:26.921Z,11.96
2023-05-21T01:44:58.380Z,11.95
2023-05-21T01:47:31.353Z,11.81
2023-05-21T01:50:01.498Z,11.71
2023-05-21T01:52:31.152Z,11.71
2023-05-21T01:55:01.816Z,11.69
2023-05-21T01:57:31.102Z,11.62
2023-05-21T02:00:01.286Z,11.59
2023-05-21T02:02:30.543Z,11.59
2023-05-21T02:04:59.658Z,11.53
2023-05-21T02:07:32.675Z,11.53
2023-05-21T02:10:05.006Z,11.58
2023-05-21T02:12:34.377Z,11.65
2023-05-21T02:15:04.083Z,11.70
2023-05-21T02:17:34.048Z,11.52
2023-05-21T02:20:11.505Z,11.57
2023-05-21T02:22:41.864Z,11.54
2023-05-21T02:25:13.991Z,11.43
2023-05-21T02:27:44.650Z,11.43
2023-05-21T02:30:16.261Z,11.40
2023-05-21T02:32:45.608Z,11.37
2023-05-21T02:35:15.270Z,11.39
2023-05-21T02:37:45.009Z,11.43
2023-05-21T02:40:15.748Z,11.36
2023-05-21T02:42:44.819Z,11.34
2023-05-21T02:45:19.374Z,11.35
2023-05-21T02:47:49.173Z,11.29
2023-05-21T02:50:22.497Z,11.22
2023-05-21T02:52:59.789Z,11.25
2023-05-21T02:55:31.317Z,11.35
2023-05-21T02:58:00.549Z,11.28
2023-05-21T03:00:29.650Z,11.31
2023-05-21T03:02:58.882Z,11.37
2023-05-21T03:05:28.065Z,11.24
2023-05-21T03:07:57.165Z,11.15
2023-05-21T03:10:26.572Z,11.19
2023-05-21T03:12:57.154Z,11.30
2023-05-21T03:15:26.390Z,11.28
2023-05-21T03:17:55.713Z,11.08
2023-05-21T03:20:26.922Z,10.92
2023-05-21T03:22:56.236Z,11.09
2023-05-21T03:25:25.443Z,11.00
2023-05-21T03:27:57.820Z,11.01
2023-05-21T03:30:46.427Z,11.00
2023-05-21T03:33:34.337Z,10.94
2023-05-21T03:36:10.166Z,10.99
2023-05-21T03:38:40.206Z,10.98
2023-05-21T03:41:10.239Z,11.09
2023-05-21T03:43:41.857Z,11.06
2023-05-21T03:46:11.108Z,11.17
2023-05-21T03:49:09.448Z,11.44
2023-05-21T03:51:40.827Z,11.45
2023-05-21T03:54:13.400Z,11.37
2023-05-21T03:56:42.650Z,11.45
2023-05-21T03:59:13.154Z,11.39
2023-05-21T04:01:42.739Z,11.50
2023-05-21T04:04:14.968Z,11.55
2023-05-21T04:06:44.712Z,11.69
2023-05-21T04:09:15.029Z,11.80
2023-05-21T04:11:44.182Z,11.88
2023-05-21T04:14:14.733Z,11.89
2023-05-21T04:16:44.984Z,11.89
2023-05-21T04:19:14.190Z,12.03
2023-05-21T04:21:45.189Z,12.01
2023-05-21T04:24:16.481Z,12.01
2023-05-21T04:27:11.198Z,12.09
2023-05-21T04:29:42.913Z,12.15
2023-05-21T04:32:15.417Z,12.21
2023-05-21T04:34:45.632Z,12.35
2023-05-21T04:37:18.021Z,12.44
2023-05-21T04:39:48.203Z,12.62
2023-05-21T04:42:19.570Z,12.73
2023-05-21T04:44:50.680Z,12.90
2023-05-21T04:47:20.388Z,13.01
2023-05-21T04:49:51.376Z,13.16
2023-05-21T04:52:20.987Z,13.26
2023-05-21T04:54:50.424Z,13.44
2023-05-21T04:57:20.028Z,13.57
2023-05-21T04:59:50.836Z,13.75
2023-05-21T05:02:20.562Z,13.83
2023-05-21T05:04:50.402Z,13.93
2023-05-21T05:07:20.012Z,14.10
2023-05-21T05:09:49.963Z,14.22
2023-05-21T05:12:19.534Z,14.42
2023-05-21T05:14:50.534Z,14.57
2023-05-21T05:17:20.040Z,14.71
2023-05-21T05:19:49.422Z,14.83
2023-05-21T05:22:18.588Z,14.94
2023-05-21T05:24:48.807Z,15.04
2023-05-21T05:27:18.237Z,15.11
2023-05-21T05:29:47.833Z,15.24
2023-05-21T05:32:18.858Z,15.35
2023-05-21T05:34:48.034Z,15.40
2023-05-21T05:37:17.577Z,15.43
2023-05-21T05:39:46.673Z,15.46
2023-05-21T05:42:16.588Z,15.55
2023-05-21T05:44:45.810Z,15.75
2023-05-21T05:47:15.057Z,15.97
2023-05-21T05:49:45.798Z,16.26
2023-05-21T05:52:15.170Z,16.55
2023-05-21T05:54:44.375Z,16.81
2023-05-21T05:57:14.730Z,16.97
2023-05-21T05:59:43.980Z,17.12
2023-05-21T06:02:14.273Z,17.21
2023-05-21T06:04:46.956Z,17.33
2023-05-21T06:07:16.393Z,17.49
2023-05-21T06:09:45.597Z,17.60
2023-05-21T06:12:16.070Z,17.72
2023-05-21T06:14:46.281Z,17.81
2023-05-21T06:17:15.719Z,17.93
2023-05-21T06:19:46.575Z,18.04
2023-05-21T06:22:16.042Z,18.09
2023-05-21T06:24:45.944Z,18.20
2023-05-21T06:27:16.506Z,18.26
2023-05-21T06:29:46.230Z,18.41
2023-05-21T06:32:15.483Z,18.52
2023-05-21T06:34:46.266Z,18.65
2023-05-21T06:37:15.728Z,18.77
2023-05-21T06:39:44.994Z,18.92
2023-05-21T06:42:14.378Z,19.07
2023-05-21T06:44:54.757Z,19.21
2023-05-21T06:47:33.058Z,19.37
2023-05-21T06:50:03.812Z,19.51
2023-05-21T06:52:32.971Z,19.66
2023-05-21T06:55:03.969Z,19.81
2023-05-21T06:57:50.864Z,19.92
2023-05-21T07:00:20.344Z,20.01
2023-05-21T07:02:50.757Z,20.28
2023-05-21T07:05:21.622Z,20.42
2023-05-21T07:07:51.092Z,20.54
2023-05-21T07:10:20.364Z,20.71
2023-05-21T07:12:49.481Z,20.78
2023-05-21T07:15:19.260Z,20.90
2023-05-21T07:22:44.999Z,21.35
2023-05-21T07:25:16.150Z,21.40
2023-05-21T07:31:41.374Z,21.27
2023-05-21T07:34:10.873Z,21.38
2023-05-21T07:36:41.954Z,21.47
2023-05-21T07:39:12.473Z,21.62
2023-05-21T07:41:41.623Z,21.83
2023-05-21T07:48:45.102Z,21.97
2023-05-21T07:51:14.383Z,22.07
2023-05-21T07:53:43.604Z,22.14
2023-05-21T07:56:16.126Z,22.20
2023-05-21T07:58:46.046Z,22.30
2023-05-21T08:01:17.399Z,22.31
2023-05-21T08:03:46.543Z,22.36
2023-05-21T08:06:15.708Z,22.39
2023-05-21T08:08:44.719Z,22.52
2023-05-21T08:11:15.080Z,22.59
2023-05-21T08:13:44.093Z,22.68
2023-05-21T08:16:15.654Z,22.74
2023-05-21T08:18:44.728Z,22.81
2023-05-21T08:21:13.998Z,22.91
2023-05-21T08:23:43.190Z,23.01
2023-05-21T08:26:12.515Z,23.06
2023-05-21T08:28:44.154Z,22.90
2023-05-21T08:31:14.216Z,22.97
2023-05-21T08:33:52.039Z,23.21
2023-05-21T08:36:25.985Z,23.32
2023-05-21T08:39:01.372Z,23.44
2023-05-21T08:41:40.786Z,23.57
2023-05-21T08:44:13.675Z,23.65
2023-05-21T08:46:46.571Z,23.79
2023-05-21T08:49:18.631Z,23.79
2023-05-21T08:51:48.459Z,23.88
2023-05-21T08:54:17.933Z,23.81
2023-05-21T08:56:49.580Z,23.92
2023-05-21T08:59:23.275Z,24.19
2023-05-21T09:01:53.973Z,24.26
2023-05-21T09:04:29.494Z,24.41
2023-05-21T09:06:59.268Z,24.60
2023-05-21T09:09:56.101Z,24.92
2023-05-21T09:12:26.420Z,25.08
2023-05-21T09:14:58.538Z,25.32
2023-05-21T09:17:32.230Z,25.17
2023-05-21T09:20:14.862Z,25.27
2023-05-21T09:22:57.582Z,25.41
2023-05-21T09:25:29.386Z,25.55
2023-05-21T09:28:02.665Z,25.61
2023-05-21T09:30:36.129Z,25.58
2023-05-21T09:33:06.152Z,25.63
2023-05-21T09:35:36.213Z,25.74
2023-05-21T09:38:10.575Z,25.73
2023-05-21T09:40:46.783Z,25.75
2023-05-21T09:43:17.721Z,25.42
2023-05-21T09:45:55.997Z,25.29
2023-05-21T09:48:37.030Z,25.50
2023-05-21T09:51:14.602Z,25.80
2023-05-21T09:53:51.849Z,25.98
2023-05-21T09:56:23.670Z,26.13
2023-05-21T09:58:56.932Z,26.11
2023-05-21T10:01:28.584Z,25.76
2023-05-21T10:03:59.316Z,25.85
2023-05-21T10:06:31.146Z,26.13
2023-05-21T10:09:05.617Z,26.40
2023-05-21T10:11:37.244Z,26.32
2023-05-21T10:14:08.708Z,26.05
2023-05-21T10:16:39.388Z,25.91
2023-05-21T10:19:11.145Z,26.20
2023-05-21T10:21:41.258Z,26.18
2023-05-21T10:24:11.887Z,26.02
2023-05-21T10:26:42.409Z,25.67
2023-05-21T10:29:12.260Z,25.76
2023-05-21T10:31:49.595Z,26.36
2023-05-21T10:34:20.444Z,26.86
2023-05-21T10:36:52.229Z,27.05
2023-05-21T10:39:24.121Z,26.82
2023-05-21T10:42:04.156Z,26.50
2023-05-21T10:44:46.959Z,26.63
2023-05-21T10:47:54.208Z,26.62
2023-05-21T10:50:52.088Z,26.37
2023-05-21T10:53:30.063Z,27.13
2023-05-21T10:56:17.185Z,28.61
2023-05-21T10:59:21.839Z,29.88
2023-05-21T11:01:53.692Z,30.39
2023-05-21T11:04:30.649Z,30.56
2023-05-21T11:07:00.348Z,31.27
2023-05-21T11:09:29.571Z,31.81
2023-05-21T11:12:00.928Z,31.50
2023-05-21T11:14:35.282Z,31.11
2023-05-21T11:17:06.262Z,30.50
2023-05-21T11:19:41.964Z,30.28
2023-05-21T11:22:23.119Z,29.17
2023-05-21T11:24:53.376Z,28.21
2023-05-21T11:27:34.599Z,28.77
2023-05-21T11:30:08.827Z,30.42
2023-05-21T11:33:01.948Z,30.26
2023-05-21T11:35:32.437Z,30.84
2023-05-21T11:38:01.461Z,30.47
2023-05-21T11:40:31.121Z,29.11
2023-05-21T11:43:00.168Z,28.12
2023-05-21T11:45:34.467Z,27.46
2023-05-21T11:48:04.678Z,28.70
2023-05-21T11:50:35.822Z,30.10
2023-05-21T11:53:07.620Z,29.67
2023-05-21T11:55:40.063Z,28.85
2023-05-21T11:58:10.734Z,28.15
2023-05-21T12:00:41.189Z,29.16
2023-05-21T12:03:13.106Z,30.28
2023-05-21T12:05:53.982Z,30.55
2023-05-21T12:08:25.465Z,30.94
2023-05-21T12:11:00.205Z,30.39
2023-05-21T12:13:29.831Z,31.11
2023-05-21T12:15:58.865Z,31.20
2023-05-21T12:18:28.245Z,32.52
2023-05-21T12:20:58.889Z,33.36
2023-05-21T12:23:30.432Z,34.07
2023-05-21T12:25:59.904Z,36.13
2023-05-21T12:28:29.241Z,37.54
2023-05-21T12:30:58.221Z,38.86
2023-05-21T12:33:34.277Z,39.21
2023-05-21T12:36:05.188Z,39.65
2023-05-21T12:38:34.213Z,38.79
2023-05-21T12:41:06.010Z,39.37
2023-05-21T12:43:35.034Z,40.55
2023-05-21T12:46:04.048Z,40.95
2023-05-21T12:48:33.062Z,39.09
2023-05-21T12:51:02.003Z,36.38
2023-05-21T12:53:39.734Z,37.53
2023-05-21T12:56:11.255Z,39.24
2023-05-21T12:58:40.709Z,40.65
2023-05-21T13:01:11.023Z,39.93
2023-05-21T13:03:42.616Z,36.63
2023-05-21T13:06:11.797Z,37.22
2023-05-21T13:08:42.256Z,36.45
2023-05-21T13:11:11.358Z,37.44
2023-05-21T13:13:40.542Z,39.60
2023-05-21T13:16:09.927Z,40.02
2023-05-21T13:18:39.074Z,37.15
2023-05-21T13:21:08.224Z,35.15
2023-05-21T13:23:37.308Z,33.59
2023-05-21T13:26:07.856Z,31.27
2023-05-21T13:28:37.124Z,29.07
2023-05-21T13:31:06.625Z,28.81
2023-05-21T13:33:35.957Z,28.90
2023-05-21T13:36:05.654Z,28.94
2023-05-21T13:38:34.814Z,30.87
2023-05-21T13:41:04.042Z,35.70
2023-05-21T13:43:34.714Z,39.23
2023-05-21T13:46:05.108Z,40.52
2023-05-21T13:48:34.450Z,40.54
2023-05-21T13:51:03.821Z,40.93
2023-05-21T13:53:32.973Z,42.14
2023-05-21T13:56:02.308Z,43.41
2023-05-21T13:58:34.580Z,42.83
2023-05-21T14:01:05.577Z,44.17
2023-05-21T14:03:34.782Z,44.69
2023-05-21T14:06:03.982Z,45.06
2023-05-21T14:08:33.081Z,46.18
2023-05-21T14:11:04.848Z,46.43
2023-05-21T14:13:34.439Z,46.58
2023-05-21T14:16:05.404Z,45.97
2023-05-21T14:18:34.639Z,46.41
2023-05-21T14:21:03.833Z,47.32
2023-05-21T14:23:33.196Z,47.48
2023-05-21T14:26:02.383Z,47.45
2023-05-21T14:28:31.665Z,47.43
2023-05-21T14:31:00.897Z,47.72
2023-05-21T14:33:32.894Z,48.36
2023-05-21T14:36:02.458Z,47.90
2023-05-21T14:38:31.651Z,48.19
2023-05-21T14:41:00.771Z,48.53
2023-05-21T14:43:29.951Z,48.51
2023-05-21T14:45:59.137Z,48.23
2023-05-21T14:48:28.282Z,48.41
2023-05-21T14:50:58.790Z,48.65
2023-05-21T14:53:27.947Z,48.36
2023-05-21T14:55:57.035Z,48.27
2023-05-21T14:58:26.150Z,48.51
2023-05-21T15:00:55.385Z,48.23
2023-05-21T15:03:24.658Z,48.10
2023-05-21T15:05:53.818Z,48.42
2023-05-21T15:08:24.451Z,48.90
2023-05-21T15:10:53.718Z,48.81
2023-05-21T15:13:22.923Z,49.08
2023-05-21T15:15:52.143Z,49.35
2023-05-21T15:18:21.304Z,49.10
2023-05-21T15:20:50.413Z,49.26
2023-05-21T15:23:19.832Z,48.49
2023-05-21T15:25:50.353Z,48.34
2023-05-21T15:28:19.661Z,48.16
2023-05-21T15:30:48.826Z,48.37
2023-05-21T15:33:18.069Z,48.63
2023-05-21T15:35:47.486Z,48.60
2023-05-21T15:38:16.703Z,47.97
2023-05-21T15:40:45.793Z,47.52
2023-05-21T15:43:16.277Z,47.05
2023-05-21T15:45:45.315Z,47.78
2023-05-21T15:48:14.834Z,47.69
2023-05-21T15:50:44.103Z,47.51
2023-05-21T15:53:13.127Z,47.80
2023-05-21T15:55:42.158Z,47.68
2023-05-21T15:58:11.170Z,47.64
2023-05-21T16:00:41.628Z,47.73
2023-05-21T16:03:12.126Z,47.41
2023-05-21T16:05:41.318Z,46.90
2023-05-21T16:08:12.174Z,44.74
2023-05-21T16:10:41.282Z,41.43
2023-05-21T16:13:10.383Z,38.29
2023-05-21T16:15:39.498Z,35.32
2023-05-21T16:18:10.171Z,32.91
2023-05-21T16:20:39.717Z,32.42
2023-05-21T16:23:08.933Z,31.76
2023-05-21T16:25:38.294Z,31.54
2023-05-21T16:28:07.565Z,32.52
2023-05-21T16:30:36.635Z,33.33
2023-05-21T16:33:06.103Z,32.51
2023-05-21T16:35:36.739Z,30.78
2023-05-21T16:38:05.982Z,29.43
2023-05-21T16:40:35.086Z,28.37
2023-05-21T16:43:04.089Z,27.73
2023-05-21T16:45:40.104Z,27.17
2023-05-21T16:48:10.088Z,29.65
2023-05-21T16:50:41.371Z,33.05
2023-05-21T16:53:11.473Z,34.88
2023-05-21T16:55:42.389Z,35.34
2023-05-21T16:58:13.631Z,36.01
2023-05-21T17:00:42.803Z,36.44
2023-05-21T17:03:12.790Z,36.71
2023-05-21T17:05:43.702Z,37.26
2023-05-21T17:08:12.860Z,37.28
2023-05-21T17:10:42.108Z,37.04
2023-05-21T17:13:21.335Z,37.20
2023-05-21T17:15:52.805Z,36.45
2023-05-21T17:18:23.120Z,36.23
2023-05-21T17:20:56.303Z,34.40
2023-05-21T17:23:26.073Z,33.97
2023-05-21T17:25:55.726Z,33.41
2023-05-21T17:28:25.611Z,32.89
2023-05-21T17:30:54.643Z,32.77
2023-05-21T17:33:24.569Z,32.74
2023-05-21T17:35:56.498Z,32.98
2023-05-21T17:38:25.554Z,32.79
2023-05-21T17:40:55.604Z,32.71
2023-05-21T17:43:26.707Z,32.51
2023-05-21T17:45:56.234Z,31.90
2023-05-21T17:48:25.822Z,30.75
2023-05-21T17:50:56.754Z,29.03
2023-05-21T17:53:25.853Z,27.56
2023-05-21T17:55:55.483Z,26.59
2023-05-21T17:58:24.584Z,25.72
2023-05-21T18:00:53.654Z,24.93
2023-05-21T18:03:22.778Z,24.38
2023-05-21T18:05:52.164Z,23.81
2023-05-21T18:08:22.623Z,23.48
2023-05-21T18:10:51.705Z,23.13
2023-05-21T18:13:20.742Z,22.75
2023-05-21T18:15:49.794Z,22.45
2023-05-21T18:18:21.484Z,22.19
2023-05-21T18:20:51.991Z,21.88
2023-05-21T18:23:23.497Z,21.28
2023-05-21T18:25:53.823Z,20.87
2023-05-21T18:28:22.998Z,20.76
2023-05-21T18:30:52.170Z,20.41
2023-05-21T18:33:21.273Z,20.13
2023-05-21T18:35:51.977Z,19.91
2023-05-21T18:39:37.621Z,20.14
2023-05-21T18:42:13.291Z,19.58
2023-05-21T18:44:46.000Z,19.02
2023-05-21T18:47:15.651Z,18.85
2023-05-21T18:49:45.001Z,18.57
2023-05-21T18:52:14.207Z,18.37
2023-05-21T18:54:44.918Z,18.32
2023-05-21T18:57:15.662Z,18.39
2023-05-21T19:00:12.867Z,18.29
2023-05-21T19:03:14.603Z,18.26
